sensor_id;sensor_type;location;lat;lon;timestamp;pressure;altitude;pressure_sealevel;temperature;humidity
48027;BME280;50714;49.208;5.364;2023-02-22T00:03:35;99323.63;;;4.48;74.03
48027;BME280;50714;49.208;5.364;2023-02-22T00:13:38;99295.25;;;4.22;74.00
48027;BME280;50714;49.208;5.364;2023-02-22T00:23:40;99302.22;;;4.31;74.48
48027;BME280;50714;49.208;5.364;2023-02-22T00:33:45;99301.22;;;4.32;75.02
48027;BME280;50714;49.208;5.364;2023-02-22T00:43:46;99306.44;;;4.18;75.16
48027;BME280;50714;49.208;5.364;2023-02-22T00:53:48;99303.09;;;4.24;75.37
48027;BME280;50714;49.208;5.364;2023-02-22T01:03:48;99297.59;;;4.01;75.12
48027;BME280;50714;49.208;5.364;2023-02-22T01:13:48;99293.25;;;4.00;75.40
48027;BME280;50714;49.208;5.364;2023-02-22T01:23:49;99288.38;;;3.79;76.62
48027;BME280;50714;49.208;5.364;2023-02-22T01:33:49;99284.72;;;3.72;76.76
48027;BME280;50714;49.208;5.364;2023-02-22T01:43:50;99272.69;;;3.84;76.95
48027;BME280;50714;49.208;5.364;2023-02-22T01:53:57;99263.34;;;3.64;76.51
48027;BME280;50714;49.208;5.364;2023-02-22T02:04:03;99253.63;;;3.55;77.08
48027;BME280;50714;49.208;5.364;2023-02-22T02:14:06;99242.47;;;3.59;77.54
48027;BME280;50714;49.208;5.364;2023-02-22T02:45:04;99205.13;;;3.67;78.84
48027;BME280;50714;49.208;5.364;2023-02-22T02:55:09;99207.63;;;3.61;76.71
48027;BME280;50714;49.208;5.364;2023-02-22T03:25:36;99167.22;;;2.99;78.11
48027;BME280;50714;49.208;5.364;2023-02-22T03:35:43;99159.72;;;3.11;78.92
48027;BME280;50714;49.208;5.364;2023-02-22T03:45:48;99149.41;;;3.16;78.24
48027;BME280;50714;49.208;5.364;2023-02-22T03:55:50;99150.94;;;3.26;77.98
48027;BME280;50714;49.208;5.364;2023-02-22T04:05:52;99157.06;;;3.02;78.73
48027;BME280;50714;49.208;5.364;2023-02-22T04:15:53;99149.34;;;2.83;78.38
48027;BME280;50714;49.208;5.364;2023-02-22T04:25:53;99142.69;;;2.87;79.35
48027;BME280;50714;49.208;5.364;2023-02-22T04:35:54;99141.34;;;2.91;78.91
48027;BME280;50714;49.208;5.364;2023-02-22T04:45:56;99141.50;;;2.73;79.72
48027;BME280;50714;49.208;5.364;2023-02-22T04:55:57;99128.38;;;2.80;80.46
48027;BME280;50714;49.208;5.364;2023-02-22T05:05:57;99140.00;;;2.87;79.92
48027;BME280;50714;49.208;5.364;2023-02-22T05:15:57;99140.00;;;2.79;79.57
48027;BME280;50714;49.208;5.364;2023-02-22T05:25:58;99133.00;;;2.78;79.59
48027;BME280;50714;49.208;5.364;2023-02-22T05:35:59;99140.66;;;2.73;80.56
48027;BME280;50714;49.208;5.364;2023-02-22T05:45:59;99139.81;;;2.72;79.82
48027;BME280;50714;49.208;5.364;2023-02-22T05:55:59;99131.34;;;2.77;79.64
48027;BME280;50714;49.208;5.364;2023-02-22T06:06:00;99125.63;;;2.64;79.62
48027;BME280;50714;49.208;5.364;2023-02-22T06:16:01;99117.31;;;2.59;79.59
48027;BME280;50714;49.208;5.364;2023-02-22T06:26:01;99125.97;;;2.69;79.65
48027;BME280;50714;49.208;5.364;2023-02-22T06:36:02;99112.00;;;2.67;80.53
48027;BME280;50714;49.208;5.364;2023-02-22T06:46:02;99119.69;;;2.78;81.21
48027;BME280;50714;49.208;5.364;2023-02-22T06:56:03;99142.72;;;3.03;80.50
48027;BME280;50714;49.208;5.364;2023-02-22T07:06:05;99145.41;;;3.03;81.05
48027;BME280;50714;49.208;5.364;2023-02-22T07:16:06;99139.41;;;3.01;81.11
48027;BME280;50714;49.208;5.364;2023-02-22T07:26:06;99133.59;;;3.30;81.10
48027;BME280;50714;49.208;5.364;2023-02-22T07:36:07;99138.91;;;3.55;81.84
48027;BME280;50714;49.208;5.364;2023-02-22T07:46:07;99135.13;;;4.68;80.97
48027;BME280;50714;49.208;5.364;2023-02-22T07:56:08;99143.41;;;5.95;79.01
48027;BME280;50714;49.208;5.364;2023-02-22T08:06:08;99143.22;;;6.85;75.52
48027;BME280;50714;49.208;5.364;2023-02-22T08:16:10;99133.44;;;7.13;74.54
48027;BME280;50714;49.208;5.364;2023-02-22T08:26:10;99141.84;;;7.10;75.05
48027;BME280;50714;49.208;5.364;2023-02-22T08:36:14;99123.22;;;7.02;76.17
48027;BME280;50714;49.208;5.364;2023-02-22T08:46:16;99127.63;;;7.52;77.75
48027;BME280;50714;49.208;5.364;2023-02-22T08:56:16;99110.41;;;8.59;76.70
48027;BME280;50714;49.208;5.364;2023-02-22T09:06:17;99122.47;;;9.43;74.49
48027;BME280;50714;49.208;5.364;2023-02-22T09:16:18;99133.88;;;9.58;74.80
48027;BME280;50714;49.208;5.364;2023-02-22T09:26:18;99139.06;;;9.73;74.73
48027;BME280;50714;49.208;5.364;2023-02-22T09:36:18;99128.69;;;10.03;73.56
48027;BME280;50714;49.208;5.364;2023-02-22T09:46:27;99141.34;;;10.03;74.53
48027;BME280;50714;49.208;5.364;2023-02-22T09:56:30;99137.63;;;10.23;74.06
48027;BME280;50714;49.208;5.364;2023-02-22T10:06:33;99141.75;;;10.26;74.39
48027;BME280;50714;49.208;5.364;2023-02-22T10:26:46;99125.09;;;10.55;76.41
48027;BME280;50714;49.208;5.364;2023-02-22T10:36:50;99121.59;;;11.38;77.26
48027;BME280;50714;49.208;5.364;2023-02-22T10:46:53;99124.34;;;11.94;76.31
48027;BME280;50714;49.208;5.364;2023-02-22T10:56:54;99147.72;;;12.07;76.08
48027;BME280;50714;49.208;5.364;2023-02-22T11:07:20;99153.59;;;11.79;77.17
48027;BME280;50714;49.208;5.364;2023-02-22T11:17:31;99151.28;;;11.44;78.44
48027;BME280;50714;49.208;5.364;2023-02-22T11:37:34;99133.78;;;11.15;79.39
48027;BME280;50714;49.208;5.364;2023-02-22T11:47:47;99128.25;;;11.04;81.32
48027;BME280;50714;49.208;5.364;2023-02-22T12:18:29;99103.56;;;11.32;82.83
48027;BME280;50714;49.208;5.364;2023-02-22T12:28:37;99093.19;;;11.28;83.19
48027;BME280;50714;49.208;5.364;2023-02-22T12:38:41;99097.81;;;11.21;86.28
48027;BME280;50714;49.208;5.364;2023-02-22T12:59:31;99098.47;;;11.10;84.80
48027;BME280;50714;49.208;5.364;2023-02-22T13:29:59;99091.25;;;11.04;85.09
48027;BME280;50714;49.208;5.364;2023-02-22T14:00:42;99084.59;;;11.07;87.40
48027;BME280;50714;49.208;5.364;2023-02-22T14:10:47;99090.47;;;10.97;86.89
48027;BME280;50714;49.208;5.364;2023-02-22T14:21:06;99096.31;;;10.87;88.19
48027;BME280;50714;49.208;5.364;2023-02-22T14:31:12;99090.13;;;10.80;88.04
48027;BME280;50714;49.208;5.364;2023-02-22T14:41:13;99089.94;;;10.75;88.39
48027;BME280;50714;49.208;5.364;2023-02-22T14:51:20;99089.56;;;10.65;90.15
48027;BME280;50714;49.208;5.364;2023-02-22T15:01:32;99091.25;;;10.59;91.07
48027;BME280;50714;49.208;5.364;2023-02-22T15:11:33;99086.69;;;10.60;90.99
48027;BME280;50714;49.208;5.364;2023-02-22T15:21:33;99081.03;;;10.68;91.36
48027;BME280;50714;49.208;5.364;2023-02-22T15:31:36;99072.50;;;10.71;92.62
48027;BME280;50714;49.208;5.364;2023-02-22T15:41:36;99079.38;;;10.67;92.38
48027;BME280;50714;49.208;5.364;2023-02-22T15:51:38;99083.38;;;10.58;92.66
48027;BME280;50714;49.208;5.364;2023-02-22T16:01:42;99074.47;;;10.51;92.90
48027;BME280;50714;49.208;5.364;2023-02-22T16:11:45;99082.78;;;10.43;93.42
48027;BME280;50714;49.208;5.364;2023-02-22T16:21:54;99085.31;;;10.38;94.56
48027;BME280;50714;49.208;5.364;2023-02-22T16:31:57;99084.50;;;10.31;95.39
48027;BME280;50714;49.208;5.364;2023-02-22T16:42:00;99083.88;;;10.22;95.42
48027;BME280;50714;49.208;5.364;2023-02-22T16:52:05;99090.91;;;10.16;97.02
48027;BME280;50714;49.208;5.364;2023-02-22T17:02:11;99087.22;;;10.11;98.35
48027;BME280;50714;49.208;5.364;2023-02-22T17:12:12;99083.47;;;10.05;99.91
48027;BME280;50714;49.208;5.364;2023-02-22T17:22:18;99090.75;;;10.05;100.00
48027;BME280;50714;49.208;5.364;2023-02-22T17:32:19;99090.13;;;10.03;100.00
48027;BME280;50714;49.208;5.364;2023-02-22T17:42:19;99106.50;;;10.01;100.00
48027;BME280;50714;49.208;5.364;2023-02-22T17:52:20;99111.06;;;10.01;100.00
48027;BME280;50714;49.208;5.364;2023-02-22T18:02:20;99105.47;;;9.96;100.00
48027;BME280;50714;49.208;5.364;2023-02-22T18:12:20;99100.06;;;9.96;100.00
48027;BME280;50714;49.208;5.364;2023-02-22T18:22:21;99103.81;;;9.95;100.00
48027;BME280;50714;49.208;5.364;2023-02-22T18:32:21;99099.66;;;9.92;100.00
48027;BME280;50714;49.208;5.364;2023-02-22T18:42:26;99093.22;;;9.93;100.00
48027;BME280;50714;49.208;5.364;2023-02-22T18:52:26;99090.34;;;9.88;100.00
48027;BME280;50714;49.208;5.364;2023-02-22T19:02:30;99088.69;;;9.87;100.00
48027;BME280;50714;49.208;5.364;2023-02-22T19:12:30;99086.22;;;9.85;100.00
48027;BME280;50714;49.208;5.364;2023-02-22T19:22:32;99083.94;;;9.82;100.00
48027;BME280;50714;49.208;5.364;2023-02-22T19:32:32;99075.22;;;9.80;100.00
48027;BME280;50714;49.208;5.364;2023-02-22T19:42:35;99077.72;;;9.82;100.00
48027;BME280;50714;49.208;5.364;2023-02-22T19:52:35;99073.34;;;9.81;100.00
48027;BME280;50714;49.208;5.364;2023-02-22T20:02:39;99070.66;;;9.81;100.00
48027;BME280;50714;49.208;5.364;2023-02-22T20:12:39;99078.34;;;9.84;100.00
48027;BME280;50714;49.208;5.364;2023-02-22T20:22:43;99073.16;;;9.82;100.00
48027;BME280;50714;49.208;5.364;2023-02-22T20:32:44;99080.19;;;9.83;100.00
48027;BME280;50714;49.208;5.364;2023-02-22T20:42:45;99083.91;;;9.76;100.00
48027;BME280;50714;49.208;5.364;2023-02-22T20:52:46;99086.19;;;9.72;100.00
48027;BME280;50714;49.208;5.364;2023-02-22T21:02:46;99077.09;;;9.67;100.00
48027;BME280;50714;49.208;5.364;2023-02-22T21:12:47;99079.59;;;9.68;100.00
48027;BME280;50714;49.208;5.364;2023-02-22T21:22:47;99081.22;;;9.69;100.00
48027;BME280;50714;49.208;5.364;2023-02-22T21:32:50;99083.09;;;9.75;100.00
48027;BME280;50714;49.208;5.364;2023-02-22T21:42:52;99087.66;;;9.75;100.00
48027;BME280;50714;49.208;5.364;2023-02-22T21:52:53;99092.41;;;9.73;100.00
48027;BME280;50714;49.208;5.364;2023-02-22T22:02:56;99095.75;;;9.68;100.00
48027;BME280;50714;49.208;5.364;2023-02-22T22:13:08;99088.28;;;9.64;100.00
48027;BME280;50714;49.208;5.364;2023-02-22T22:23:10;99095.75;;;9.62;100.00
48027;BME280;50714;49.208;5.364;2023-02-22T22:33:11;99081.25;;;9.63;100.00
48027;BME280;50714;49.208;5.364;2023-02-22T22:43:11;99085.81;;;9.62;100.00
48027;BME280;50714;49.208;5.364;2023-02-22T22:53:12;99095.97;;;9.60;100.00
48027;BME280;50714;49.208;5.364;2023-02-22T23:03:15;99099.06;;;9.57;100.00
48027;BME280;50714;49.208;5.364;2023-02-22T23:13:16;99097.81;;;9.53;100.00
48027;BME280;50714;49.208;5.364;2023-02-22T23:23:16;99079.78;;;9.47;100.00
48027;BME280;50714;49.208;5.364;2023-02-22T23:33:17;99084.13;;;9.41;100.00
48027;BME280;50714;49.208;5.364;2023-02-22T23:43:17;99087.66;;;9.35;100.00
48027;BME280;50714;49.208;5.364;2023-02-22T23:53:19;99088.69;;;9.34;100.00
